Time;durP1;ratioP1;P1;durP2;ratioP2;P2;SDS_P1;SDS_P2;PMS_P1;PMS_P2;Temp;Humidity;BMP_temperature;BMP_pressure;BME280_temperature;BME280_humidity;BME280_pressure;Samples;Min_cycle;Max_cycle;Signal;HPM_P1;HPM_P2
2021/10/12 00:00:54;;;;;;;6.79;6.06;;;;;;;19.97;62.54;101229.81;;;;-57
2021/10/12 00:03:54;;;;;;;6.88;6.18;;;;;;;19.95;62.56;101231.65;;;;-58
2021/10/12 00:06:54;;;;;;;6.68;5.98;;;;;;;19.93;62.61;101232.19;;;;-54
2021/10/12 00:09:54;;;;;;;7.33;6.27;;;;;;;19.91;62.64;101230.84;;;;-54
2021/10/12 00:12:54;;;;;;;6.29;5.67;;;;;;;19.91;62.65;101231.33;;;;-55
2021/10/12 00:15:54;;;;;;;6.81;6.11;;;;;;;19.91;62.70;101231.01;;;;-54
2021/10/12 00:18:54;;;;;;;6.53;5.81;;;;;;;19.91;62.62;101229.55;;;;-54
2021/10/12 00:21:54;;;;;;;6.47;5.87;;;;;;;19.90;62.69;101231.14;;;;-54
2021/10/12 00:24:54;;;;;;;6.64;5.95;;;;;;;19.88;62.75;101232.44;;;;-55
2021/10/12 00:27:54;;;;;;;6.85;5.96;;;;;;;19.87;62.80;101234.11;;;;-57
2021/10/12 00:30:54;;;;;;;6.71;6.01;;;;;;;19.86;62.76;101235.17;;;;-57
2021/10/12 00:33:54;;;;;;;6.93;6.24;;;;;;;19.86;62.81;101237.69;;;;-57
2021/10/12 00:36:54;;;;;;;6.91;6.21;;;;;;;19.86;62.70;101241.11;;;;-58
2021/10/12 00:39:54;;;;;;;6.36;5.75;;;;;;;19.86;62.68;101240.18;;;;-58
2021/10/12 00:42:54;;;;;;;7.25;6.51;;;;;;;19.86;62.76;101239.85;;;;-57
2021/10/12 00:45:54;;;;;;;6.81;6.03;;;;;;;19.85;62.68;101235.95;;;;-58
2021/10/12 00:48:54;;;;;;;6.65;6.02;;;;;;;19.83;62.75;101235.26;;;;-58
2021/10/12 00:51:54;;;;;;;6.61;5.65;;;;;;;19.83;62.72;101228.02;;;;-58
2021/10/12 00:54:54;;;;;;;6.96;6.02;;;;;;;19.82;62.77;101224.69;;;;-52
2021/10/12 00:57:54;;;;;;;6.62;5.97;;;;;;;19.80;62.85;101223.59;;;;-52
2021/10/12 01:00:54;;;;;;;6.93;5.86;;;;;;;19.81;62.74;101215.05;;;;-52
2021/10/12 01:03:54;;;;;;;6.52;5.92;;;;;;;19.80;62.77;101213.42;;;;-52
2021/10/12 01:06:54;;;;;;;6.45;5.77;;;;;;;19.79;62.83;101212.17;;;;-52
2021/10/12 01:09:54;;;;;;;6.43;5.83;;;;;;;19.77;62.77;101210.76;;;;-52
2021/10/12 01:12:54;;;;;;;6.82;5.89;;;;;;;19.77;62.83;101208.07;;;;-52
2021/10/12 01:15:54;;;;;;;6.45;5.76;;;;;;;19.78;62.77;101203.63;;;;-53
2021/10/12 01:18:54;;;;;;;6.76;6.15;;;;;;;19.77;62.78;101198.63;;;;-54
2021/10/12 01:21:54;;;;;;;6.39;5.73;;;;;;;19.76;62.83;101197.33;;;;-54
2021/10/12 01:24:54;;;;;;;6.33;5.66;;;;;;;19.75;62.84;101190.55;;;;-54
2021/10/12 01:27:54;;;;;;;6.75;6.08;;;;;;;19.74;62.83;101185.18;;;;-58
2021/10/12 01:30:56;;;;;;;6.88;6.18;;;;;;;19.73;62.93;101182.38;;;;-58
2021/10/12 01:33:54;;;;;;;6.31;5.69;;;;;;;19.72;62.97;101180.75;;;;-58
2021/10/12 01:36:54;;;;;;;6.63;5.92;;;;;;;19.72;62.89;101180.59;;;;-58
2021/10/12 01:39:54;;;;;;;6.61;5.69;;;;;;;19.71;62.97;101182.51;;;;-57
2021/10/12 01:42:54;;;;;;;6.37;5.77;;;;;;;19.72;62.97;101178.56;;;;-55
2021/10/12 01:45:54;;;;;;;6.65;5.95;;;;;;;19.68;62.98;101168.45;;;;-54
2021/10/12 01:48:54;;;;;;;6.29;5.69;;;;;;;19.68;63.04;101165.13;;;;-54
2021/10/12 01:51:54;;;;;;;6.43;5.83;;;;;;;19.68;63.01;101155.36;;;;-57
2021/10/12 01:54:54;;;;;;;6.24;5.64;;;;;;;19.69;62.86;101145.77;;;;-53
2021/10/12 01:57:54;;;;;;;6.53;5.89;;;;;;;19.68;62.94;101146.91;;;;-54
2021/10/12 02:00:54;;;;;;;6.35;5.74;;;;;;;19.66;63.06;101149.47;;;;-54
2021/10/12 02:03:54;;;;;;;6.40;5.80;;;;;;;19.67;62.98;101147.20;;;;-54
2021/10/12 02:06:54;;;;;;;6.18;5.58;;;;;;;19.66;63.02;101138.33;;;;-54
2021/10/12 02:09:54;;;;;;;6.68;5.99;;;;;;;19.67;62.92;101134.27;;;;-54
2021/10/12 02:12:54;;;;;;;6.51;5.91;;;;;;;19.65;63.03;101123.91;;;;-54
2021/10/12 02:15:54;;;;;;;6.01;5.43;;;;;;;19.64;63.04;101121.87;;;;-52
2021/10/12 02:18:54;;;;;;;6.18;5.58;;;;;;;19.65;63.01;101117.97;;;;-52
2021/10/12 02:21:54;;;;;;;6.35;5.61;;;;;;;19.62;63.09;101118.99;;;;-52
2021/10/12 02:24:54;;;;;;;6.31;5.71;;;;;;;19.62;63.03;101111.59;;;;-53
2021/10/12 02:27:54;;;;;;;5.95;5.39;;;;;;;19.61;63.14;101099.53;;;;-52
2021/10/12 02:30:54;;;;;;;5.87;5.27;;;;;;;19.62;63.04;101096.31;;;;-52
2021/10/12 02:33:54;;;;;;;6.24;5.60;;;;;;;19.62;62.98;101093.46;;;;-53
2021/10/12 02:36:55;;;;;;;6.67;5.81;;;;;;;19.60;63.12;101085.06;;;;-51
2021/10/12 02:39:54;;;;;;;6.23;5.63;;;;;;;19.60;63.10;101090.02;;;;-52
2021/10/12 02:42:54;;;;;;;7.01;5.93;;;;;;;19.59;63.10;101089.45;;;;-52
2021/10/12 02:45:54;;;;;;;6.06;5.49;;;;;;;19.57;63.17;101083.97;;;;-52
2021/10/12 02:48:54;;;;;;;6.07;5.47;;;;;;;19.57;63.12;101078.59;;;;-52
2021/10/12 02:51:54;;;;;;;6.17;5.57;;;;;;;19.56;63.18;101073.61;;;;-53
2021/10/12 02:54:55;;;;;;;6.19;5.59;;;;;;;19.55;63.17;101070.36;;;;-52
2021/10/12 02:57:54;;;;;;;6.74;5.63;;;;;;;19.55;63.21;101064.50;;;;-52
2021/10/12 03:00:54;;;;;;;6.37;5.77;;;;;;;19.53;63.24;101063.33;;;;-52
2021/10/12 03:03:54;;;;;;;6.05;5.45;;;;;;;19.54;63.22;101064.72;;;;-52
2021/10/12 03:06:54;;;;;;;6.24;5.64;;;;;;;19.54;63.20;101062.69;;;;-52
2021/10/12 03:09:54;;;;;;;6.33;5.76;;;;;;;19.53;63.23;101063.00;;;;-53
2021/10/12 03:12:54;;;;;;;6.03;5.44;;;;;;;19.52;63.22;101062.66;;;;-52
2021/10/12 03:15:54;;;;;;;6.26;5.66;;;;;;;19.52;63.26;101058.02;;;;-52
2021/10/12 03:18:54;;;;;;;6.25;5.53;;;;;;;19.51;63.23;101059.48;;;;-52
2021/10/12 03:21:57;;;;;;;6.25;5.65;;;;;;;19.50;63.24;101056.28;;;;-52
2021/10/12 03:24:54;;;;;;;6.30;5.70;;;;;;;19.51;63.24;101052.89;;;;-52
2021/10/12 03:27:54;;;;;;;6.07;5.46;;;;;;;19.48;63.29;101048.84;;;;-53
2021/10/12 03:30:54;;;;;;;6.21;5.60;;;;;;;19.48;63.31;101049.25;;;;-52
2021/10/12 03:33:54;;;;;;;5.97;5.38;;;;;;;19.48;63.24;101049.17;;;;-52
2021/10/12 03:36:54;;;;;;;6.35;5.75;;;;;;;19.48;63.30;101051.28;;;;-52
2021/10/12 03:39:54;;;;;;;6.17;5.57;;;;;;;19.48;63.32;101054.78;;;;-52
2021/10/12 03:42:54;;;;;;;6.10;5.50;;;;;;;19.47;63.32;101056.81;;;;-52
2021/10/12 03:45:54;;;;;;;6.23;5.63;;;;;;;19.46;63.30;101058.41;;;;-53
2021/10/12 03:48:54;;;;;;;6.03;5.43;;;;;;;19.46;63.25;101056.20;;;;-53
2021/10/12 03:51:54;;;;;;;6.31;5.71;;;;;;;19.46;63.35;101057.19;;;;-52
2021/10/12 03:54:54;;;;;;;6.25;5.57;;;;;;;19.45;63.27;101060.68;;;;-52
2021/10/12 03:57:54;;;;;;;6.00;5.40;;;;;;;19.45;63.38;101063.20;;;;-52
2021/10/12 04:00:54;;;;;;;5.81;5.29;;;;;;;19.45;63.32;101061.98;;;;-52
2021/10/12 04:03:54;;;;;;;5.83;5.25;;;;;;;19.45;63.34;101061.98;;;;-52
2021/10/12 04:06:54;;;;;;;5.89;5.35;;;;;;;19.43;63.39;101058.20;;;;-52
2021/10/12 04:09:54;;;;;;;5.55;5.05;;;;;;;19.43;63.39;101051.38;;;;-53
2021/10/12 04:12:54;;;;;;;6.32;5.35;;;;;;;19.43;63.36;101056.66;;;;-52
2021/10/12 04:15:54;;;;;;;6.04;5.44;;;;;;;19.43;63.34;101056.83;;;;-52
2021/10/12 04:18:54;;;;;;;5.81;5.24;;;;;;;19.42;63.31;101052.73;;;;-52
2021/10/12 04:21:54;;;;;;;6.06;5.46;;;;;;;19.42;63.32;101051.11;;;;-52
2021/10/12 04:24:54;;;;;;;5.64;5.14;;;;;;;19.42;63.27;101046.67;;;;-52
2021/10/12 04:27:55;;;;;;;6.03;5.43;;;;;;;19.41;63.31;101044.77;;;;-51
2021/10/12 04:30:54;;;;;;;5.93;5.36;;;;;;;19.40;63.34;101045.95;;;;-57
2021/10/12 04:33:54;;;;;;;5.97;5.37;;;;;;;19.39;63.38;101043.34;;;;-57
2021/10/12 04:36:54;;;;;;;5.73;5.22;;;;;;;19.40;63.35;101040.78;;;;-57
2021/10/12 04:39:54;;;;;;;5.67;5.17;;;;;;;19.39;63.37;101042.62;;;;-52
2021/10/12 04:42:54;;;;;;;5.97;5.37;;;;;;;19.39;63.34;101036.20;;;;-52
2021/10/12 04:45:54;;;;;;;5.84;5.28;;;;;;;19.37;63.36;101035.92;;;;-54
2021/10/12 04:48:54;;;;;;;5.60;5.10;;;;;;;19.37;63.36;101033.00;;;;-54
2021/10/12 04:51:54;;;;;;;5.56;5.05;;;;;;;19.38;63.35;101031.13;;;;-54
2021/10/12 04:54:54;;;;;;;5.71;5.17;;;;;;;19.37;63.36;101024.55;;;;-54
2021/10/12 04:57:54;;;;;;;5.58;5.08;;;;;;;19.38;63.37;101021.05;;;;-54
2021/10/12 05:00:54;;;;;;;5.99;5.23;;;;;;;19.37;63.36;101022.43;;;;-54
2021/10/12 05:03:54;;;;;;;5.65;5.15;;;;;;;19.37;63.33;101021.45;;;;-54
2021/10/12 05:06:54;;;;;;;5.76;5.17;;;;;;;19.35;63.35;101021.58;;;;-52
2021/10/12 05:09:54;;;;;;;6.01;5.41;;;;;;;19.36;63.38;101021.53;;;;-52
2021/10/12 05:12:54;;;;;;;5.80;5.24;;;;;;;19.35;63.38;101017.68;;;;-53
2021/10/12 05:15:54;;;;;;;5.73;5.23;;;;;;;19.34;63.40;101015.00;;;;-52
2021/10/12 05:18:57;;;;;;;5.73;5.21;;;;;;;19.36;63.33;101011.59;;;;-53
2021/10/12 05:21:54;;;;;;;5.47;4.97;;;;;;;19.35;63.41;101010.61;;;;-52
2021/10/12 05:24:54;;;;;;;5.25;4.75;;;;;;;19.35;63.39;101004.92;;;;-52
2021/10/12 05:27:54;;;;;;;5.66;5.11;;;;;;;19.33;63.43;101004.32;;;;-54
2021/10/12 05:30:54;;;;;;;6.17;5.07;;;;;;;19.33;63.46;100995.14;;;;-54
2021/10/12 05:33:54;;;;;;;5.65;5.05;;;;;;;19.32;63.50;100994.41;;;;-54
2021/10/12 05:36:54;;;;;;;5.38;4.88;;;;;;;19.31;63.51;100994.05;;;;-53
2021/10/12 05:39:54;;;;;;;5.37;4.87;;;;;;;19.32;63.50;100994.08;;;;-57
2021/10/12 05:42:54;;;;;;;5.36;4.86;;;;;;;19.32;63.51;100991.77;;;;-57
2021/10/12 05:45:54;;;;;;;5.67;5.13;;;;;;;19.30;63.54;100991.37;;;;-57
2021/10/12 05:48:54;;;;;;;5.50;5.00;;;;;;;19.32;63.47;100987.38;;;;-52
2021/10/12 05:51:54;;;;;;;5.56;5.06;;;;;;;19.31;63.50;100990.31;;;;-52
2021/10/12 05:55:05;;;;;;;5.31;4.81;;;;;;;19.31;63.48;100984.55;;;;-52
2021/10/12 05:58:08;;;;;;;5.35;4.85;;;;;;;19.30;63.54;100981.34;;;;-52
2021/10/12 06:00:54;;;;;;;13.56;6.53;;;;;;;19.32;62.95;100978.64;;;;-52
2021/10/12 06:03:54;;;;;;;14.61;11.62;;;;;;;19.18;60.70;100974.27;;;;-53
2021/10/12 06:07:01;;;;;;;15.34;12.06;;;;;;;19.00;60.17;100980.95;;;;-55
2021/10/12 06:09:54;;;;;;;15.57;11.40;;;;;;;19.05;60.90;100985.33;;;;-51
2021/10/12 06:12:54;;;;;;;14.12;9.35;;;;;;;19.08;61.66;100980.84;;;;-52
2021/10/12 06:15:54;;;;;;;11.51;9.10;;;;;;;19.12;61.97;100982.45;;;;-52
2021/10/12 06:18:54;;;;;;;12.33;8.45;;;;;;;19.15;62.02;100980.14;;;;-52
2021/10/12 06:21:54;;;;;;;9.63;8.13;;;;;;;19.16;62.18;100975.22;;;;-52
2021/10/12 06:24:54;;;;;;;9.05;7.86;;;;;;;19.17;62.31;100982.13;;;;-52
2021/10/12 06:27:54;;;;;;;9.46;8.01;;;;;;;19.17;62.36;100981.06;;;;-52
2021/10/12 06:30:54;;;;;;;8.97;7.51;;;;;;;19.16;62.49;100979.77;;;;-59
2021/10/12 06:33:54;;;;;;;8.61;7.53;;;;;;;19.16;62.58;100982.45;;;;-59
2021/10/12 06:36:54;;;;;;;8.84;7.17;;;;;;;19.16;62.62;100982.53;;;;-60
2021/10/12 06:39:54;;;;;;;8.77;7.21;;;;;;;19.16;62.66;100987.56;;;;-52
2021/10/12 06:42:54;;;;;;;7.79;6.77;;;;;;;19.17;62.67;100988.22;;;;-60
2021/10/12 06:45:54;;;;;;;8.54;7.19;;;;;;;19.18;62.73;100993.45;;;;-58
2021/10/12 06:48:54;;;;;;;7.69;6.83;;;;;;;19.18;62.77;100994.91;;;;-60
2021/10/12 06:51:54;;;;;;;7.01;6.22;;;;;;;19.17;62.82;100993.01;;;;-60
2021/10/12 06:54:54;;;;;;;7.60;6.48;;;;;;;19.17;62.81;100997.39;;;;-60
2021/10/12 06:57:54;;;;;;;7.05;6.34;;;;;;;19.17;62.85;100994.47;;;;-58
2021/10/12 07:00:54;;;;;;;7.60;6.19;;;;;;;19.16;62.92;100999.51;;;;-60
2021/10/12 07:03:54;;;;;;;7.07;6.23;;;;;;;19.17;62.93;100990.41;;;;-60
2021/10/12 07:06:54;;;;;;;7.88;6.29;;;;;;;19.18;62.94;100989.70;;;;-60
2021/10/12 07:09:55;;;;;;;6.68;6.03;;;;;;;19.18;62.95;100981.83;;;;-59
2021/10/12 07:12:55;;;;;;;6.57;5.93;;;;;;;19.17;63.01;100984.88;;;;-60
2021/10/12 07:15:54;;;;;;;6.72;6.03;;;;;;;19.17;63.00;100990.44;;;;-60
2021/10/12 07:18:54;;;;;;;6.67;5.67;;;;;;;19.17;63.05;100993.53;;;;-60
2021/10/12 07:21:54;;;;;;;6.97;6.02;;;;;;;19.17;63.05;100997.96;;;;-60
2021/10/12 07:24:54;;;;;;;6.63;5.89;;;;;;;19.17;63.07;100997.75;;;;-53
2021/10/12 07:27:54;;;;;;;6.37;5.70;;;;;;;19.17;63.09;100995.48;;;;-52
2021/10/12 07:30:54;;;;;;;9.55;5.93;;;;;;;19.18;63.08;100993.77;;;;-60
2021/10/12 07:33:54;;;;;;;7.15;5.76;;;;;;;19.16;63.11;100989.92;;;;-51
2021/10/12 07:36:54;;;;;;;5.91;5.41;;;;;;;19.17;63.15;100990.00;;;;-60
2021/10/12 07:39:54;;;;;;;7.04;5.92;;;;;;;19.17;63.13;100981.06;;;;-60
2021/10/12 07:42:54;;;;;;;6.89;5.35;;;;;;;19.17;63.19;100985.29;;;;-60
2021/10/12 07:45:54;;;;;;;5.87;5.29;;;;;;;19.16;63.24;100984.72;;;;-60
2021/10/12 07:48:58;;;;;;;6.64;5.55;;;;;;;19.18;63.23;100981.34;;;;-57
2021/10/12 07:51:54;;;;;;;6.32;5.71;;;;;;;19.19;63.34;100981.27;;;;-55
2021/10/12 07:55:01;;;;;;;6.60;5.42;;;;;;;19.22;63.50;100980.67;;;;-52
2021/10/12 07:57:57;;;;;;;8.30;5.59;;;;;;;19.26;63.62;100976.59;;;;-60
2021/10/12 08:00:54;;;;;;;6.23;5.34;;;;;;;19.30;63.89;100974.22;;;;-58
2021/10/12 08:03:54;;;;;;;5.93;5.10;;;;;;;19.36;64.16;100973.95;;;;-55
2021/10/12 08:06:54;;;;;;;6.33;4.91;;;;;;;19.42;64.27;100979.36;;;;-55
2021/10/12 08:09:56;;;;;;;5.96;5.17;;;;;;;19.48;64.33;100980.97;;;;-57
2021/10/12 08:12:56;;;;;;;6.59;4.95;;;;;;;19.52;64.42;100971.11;;;;-52
2021/10/12 08:15:58;;;;;;;5.27;4.77;;;;;;;19.57;64.47;100971.52;;;;-57
2021/10/12 08:18:54;;;;;;;6.20;4.98;;;;;;;19.60;64.32;100968.38;;;;-57
2021/10/12 08:21:54;;;;;;;5.68;4.81;;;;;;;19.65;64.39;100971.28;;;;-58
2021/10/12 08:24:54;;;;;;;5.41;4.83;;;;;;;19.68;64.33;100971.50;;;;-56
2021/10/12 08:27:54;;;;;;;5.11;4.60;;;;;;;19.71;64.28;100958.71;;;;-55
2021/10/12 08:30:54;;;;;;;6.31;4.87;;;;;;;19.75;64.23;100958.94;;;;-57
2021/10/12 08:33:54;;;;;;;5.36;4.83;;;;;;;19.78;64.30;100956.39;;;;-56
2021/10/12 08:36:54;;;;;;;5.31;4.35;;;;;;;19.82;63.91;100951.80;;;;-54
2021/10/12 08:39:54;;;;;;;5.03;4.52;;;;;;;19.86;64.32;100948.52;;;;-54
2021/10/12 08:42:54;;;;;;;5.93;4.81;;;;;;;19.90;64.19;100945.56;;;;-58
2021/10/12 08:45:54;;;;;;;6.61;4.55;;;;;;;19.94;64.25;100949.81;;;;-58
2021/10/12 08:48:54;;;;;;;5.11;4.61;;;;;;;19.98;64.30;100945.55;;;;-56
2021/10/12 08:51:54;;;;;;;5.94;4.43;;;;;;;20.00;64.34;100940.94;;;;-58
2021/10/12 08:54:54;;;;;;;5.12;4.31;;;;;;;20.03;64.10;100942.70;;;;-58
2021/10/12 08:57:54;;;;;;;5.21;4.45;;;;;;;20.07;64.06;100941.78;;;;-56
2021/10/12 09:00:54;;;;;;;4.67;4.23;;;;;;;20.11;64.05;100940.03;;;;-57
2021/10/12 09:04:02;;;;;;;5.73;4.59;;;;;;;20.17;64.06;100939.50;;;;-57
2021/10/12 09:06:55;;;;;;;6.70;4.29;;;;;;;20.18;63.92;100939.20;;;;-57
2021/10/12 09:09:54;;;;;;;6.78;4.18;;;;;;;20.19;63.74;100936.02;;;;-57
2021/10/12 09:12:58;;;;;;;4.99;4.13;;;;;;;20.21;63.75;100928.73;;;;-57
2021/10/12 09:15:54;;;;;;;5.99;4.28;;;;;;;20.23;63.91;100918.33;;;;-52
2021/10/12 09:18:55;;;;;;;5.77;4.26;;;;;;;20.24;63.68;100912.09;;;;-52
2021/10/12 09:21:54;;;;;;;5.47;4.20;;;;;;;20.25;63.77;100905.44;;;;-51
2021/10/12 09:24:54;;;;;;;5.32;4.03;;;;;;;20.27;63.71;100904.21;;;;-52
2021/10/12 09:27:56;;;;;;;4.42;3.89;;;;;;;20.28;63.58;100898.54;;;;-51
2021/10/12 09:30:54;;;;;;;4.39;3.99;;;;;;;20.29;63.54;100898.86;;;;-52
2021/10/12 09:33:54;;;;;;;4.40;4.00;;;;;;;20.31;63.52;100897.02;;;;-54
2021/10/12 09:36:54;;;;;;;8.23;4.09;;;;;;;20.36;63.78;100893.63;;;;-52
2021/10/12 09:39:54;;;;;;;5.21;3.92;;;;;;;20.38;63.91;100890.50;;;;-48
2021/10/12 09:42:54;;;;;;;6.16;4.09;;;;;;;20.42;63.98;100890.67;;;;-51
2021/10/12 09:45:54;;;;;;;4.98;3.95;;;;;;;20.45;63.93;100887.63;;;;-57
2021/10/12 09:48:54;;;;;;;5.77;3.69;;;;;;;20.48;64.08;100888.72;;;;-58
2021/10/12 09:51:54;;;;;;;5.25;3.79;;;;;;;20.52;64.09;100888.73;;;;-58
2021/10/12 09:54:56;;;;;;;4.10;3.70;;;;;;;20.55;64.04;100891.30;;;;-58
2021/10/12 09:57:54;;;;;;;4.48;3.85;;;;;;;20.58;64.20;100886.14;;;;-61
2021/10/12 10:00:54;;;;;;;4.78;3.59;;;;;;;20.61;64.33;100878.27;;;;-51
2021/10/12 10:03:54;;;;;;;4.10;3.65;;;;;;;20.64;64.16;100867.30;;;;-52
2021/10/12 10:06:54;;;;;;;5.54;3.69;;;;;;;20.66;63.91;100856.64;;;;-54
2021/10/12 10:09:54;;;;;;;4.55;3.85;;;;;;;20.70;64.08;100853.98;;;;-54
2021/10/12 10:12:54;;;;;;;5.06;3.85;;;;;;;20.70;63.73;100848.28;;;;-47
2021/10/12 10:15:54;;;;;;;8.69;3.79;;;;;;;20.75;63.71;100847.12;;;;-56
2021/10/12 10:18:54;;;;;;;5.53;3.85;;;;;;;20.81;64.21;100842.33;;;;-57
2021/10/12 10:21:54;;;;;;;7.61;4.13;;;;;;;20.79;62.44;100839.70;;;;-52
2021/10/12 10:24:56;;;;;;;5.67;4.31;;;;;;;20.78;62.04;100840.20;;;;-54
2021/10/12 10:27:54;;;;;;;5.34;3.53;;;;;;;20.84;63.50;100840.00;;;;-54
2021/10/12 10:30:54;;;;;;;6.71;3.75;;;;;;;20.86;63.23;100834.08;;;;-56
2021/10/12 10:33:54;;;;;;;4.25;3.54;;;;;;;20.88;63.44;100827.97;;;;-56
2021/10/12 10:36:54;;;;;;;4.89;3.53;;;;;;;20.89;63.31;100830.49;;;;-56
2021/10/12 10:40:54;;;;;;;5.57;3.53;;;;;;;20.92;63.49;100823.73;;;;-54
2021/10/12 10:43:54;;;;;;;5.75;3.47;;;;;;;20.94;63.63;100815.55;;;;-53
2021/10/12 10:46:54;;;;;;;5.25;3.40;;;;;;;20.97;63.62;100818.00;;;;-55
2021/10/12 10:49:54;;;;;;;4.93;3.40;;;;;;;20.98;63.62;100819.08;;;;-53
2021/10/12 10:52:54;;;;;;;5.17;3.65;;;;;;;20.99;63.34;100817.52;;;;-53
2021/10/12 10:55:54;;;;;;;4.55;3.41;;;;;;;20.99;63.14;100813.94;;;;-53
2021/10/12 10:58:54;;;;;;;6.91;3.67;;;;;;;20.99;63.07;100807.42;;;;-53
2021/10/12 11:01:55;;;;;;;5.18;3.32;;;;;;;20.98;63.02;100797.24;;;;-53
2021/10/12 11:04:54;;;;;;;5.62;3.32;;;;;;;20.99;63.06;100797.08;;;;-53
2021/10/12 11:07:54;;;;;;;4.57;3.47;;;;;;;21.00;63.06;100798.70;;;;-53
2021/10/12 11:10:54;;;;;;;3.63;3.09;;;;;;;21.00;62.99;100795.38;;;;-53
2021/10/12 11:13:55;;;;;;;4.46;3.33;;;;;;;21.00;62.99;100789.34;;;;-53
2021/10/12 11:16:54;;;;;;;3.87;3.34;;;;;;;21.00;62.94;100788.61;;;;-54
2021/10/12 11:19:54;;;;;;;4.44;3.26;;;;;;;21.00;62.88;100780.61;;;;-53
2021/10/12 11:22:54;;;;;;;3.81;3.25;;;;;;;21.01;62.98;100777.61;;;;-53
2021/10/12 11:25:54;;;;;;;5.69;3.25;;;;;;;21.01;62.85;100775.73;;;;-53
2021/10/12 11:28:54;;;;;;;5.29;3.24;;;;;;;21.01;62.87;100773.77;;;;-50
2021/10/12 11:31:54;;;;;;;4.14;2.99;;;;;;;21.01;62.87;100769.63;;;;-65
2021/10/12 11:34:54;;;;;;;3.59;3.00;;;;;;;21.01;62.91;100762.69;;;;-66
2021/10/12 11:37:54;;;;;;;3.31;3.00;;;;;;;21.02;62.86;100760.89;;;;-66
2021/10/12 11:40:54;;;;;;;4.73;3.13;;;;;;;21.03;62.83;100753.18;;;;-53
2021/10/12 11:43:54;;;;;;;4.14;2.93;;;;;;;21.03;62.84;100745.77;;;;-50
2021/10/12 11:46:54;;;;;;;3.48;2.91;;;;;;;21.03;62.77;100741.27;;;;-53
2021/10/12 11:49:54;;;;;;;4.39;3.19;;;;;;;21.03;62.81;100736.14;;;;-53
2021/10/12 11:52:54;;;;;;;4.71;3.18;;;;;;;21.04;62.81;100732.22;;;;-52
2021/10/12 11:55:54;;;;;;;3.29;2.99;;;;;;;21.05;62.80;100731.34;;;;-53
2021/10/12 11:58:54;;;;;;;3.17;2.83;;;;;;;21.05;62.77;100726.45;;;;-53
2021/10/12 12:01:55;;;;;;;4.45;3.15;;;;;;;21.05;62.75;100723.77;;;;-53
2021/10/12 12:04:54;;;;;;;4.31;2.97;;;;;;;21.05;62.76;100713.58;;;;-51
2021/10/12 12:07:54;;;;;;;5.05;3.21;;;;;;;21.05;62.41;100708.60;;;;-51
2021/10/12 12:10:54;;;;;;;4.04;3.23;;;;;;;21.04;62.20;100705.19;;;;-51
2021/10/12 12:13:54;;;;;;;4.15;3.17;;;;;;;21.04;61.86;100701.61;;;;-51
2021/10/12 12:16:54;;;;;;;6.41;2.93;;;;;;;21.06;61.83;100697.68;;;;-53
2021/10/12 12:19:54;;;;;;;3.65;3.13;;;;;;;21.06;62.02;100695.91;;;;-51
2021/10/12 12:22:54;;;;;;;12.54;3.37;;;;;;;21.09;62.34;100689.88;;;;-58
2021/10/12 12:25:54;;;;;;;7.53;3.00;;;;;;;21.13;62.70;100690.22;;;;-58
2021/10/12 12:28:54;;;;;;;5.27;2.94;;;;;;;21.14;62.84;100688.83;;;;-63
2021/10/12 12:31:54;;;;;;;6.04;3.11;;;;;;;21.15;62.98;100681.92;;;;-57
2021/10/12 12:34:54;;;;;;;4.32;2.95;;;;;;;21.16;62.97;100681.17;;;;-48
2021/10/12 12:37:54;;;;;;;4.90;2.89;;;;;;;21.16;63.11;100683.95;;;;-48
2021/10/12 12:40:54;;;;;;;5.80;2.92;;;;;;;21.16;63.00;100679.78;;;;-51
2021/10/12 12:43:54;;;;;;;5.87;3.01;;;;;;;21.16;63.22;100680.03;;;;-51
2021/10/12 12:46:54;;;;;;;6.43;3.11;;;;;;;21.16;63.11;100676.85;;;;-47
2021/10/12 12:50:14;;;;;;;5.74;3.37;;;;;;;21.16;63.19;100673.67;;;;-50
2021/10/12 12:52:54;;;;;;;3.80;3.05;;;;;;;21.16;63.19;100674.17;;;;-52
2021/10/12 12:55:54;;;;;;;3.39;2.85;;;;;;;21.16;63.11;100670.82;;;;-54
2021/10/12 12:58:54;;;;;;;4.73;2.95;;;;;;;21.15;63.21;100669.12;;;;-58
2021/10/12 13:01:54;;;;;;;4.48;2.80;;;;;;;21.16;63.20;100659.90;;;;-51
2021/10/12 13:04:54;;;;;;;3.89;2.73;;;;;;;21.16;63.14;100658.92;;;;-53
2021/10/12 13:07:54;;;;;;;4.47;2.89;;;;;;;21.15;63.19;100657.30;;;;-60
2021/10/12 13:10:54;;;;;;;5.05;2.73;;;;;;;21.14;63.11;100656.71;;;;-61
2021/10/12 13:13:54;;;;;;;5.49;2.80;;;;;;;21.13;63.15;100656.81;;;;-51
2021/10/12 13:16:54;;;;;;;5.18;2.83;;;;;;;21.13;63.14;100651.27;;;;-57
2021/10/12 13:19:54;;;;;;;4.01;2.60;;;;;;;21.12;63.15;100646.28;;;;-59
2021/10/12 13:22:54;;;;;;;3.39;2.77;;;;;;;21.12;63.14;100643.92;;;;-56
2021/10/12 13:25:54;;;;;;;3.07;2.77;;;;;;;21.11;63.10;100648.50;;;;-56
2021/10/12 13:28:54;;;;;;;3.77;2.67;;;;;;;21.10;63.15;100648.23;;;;-51
2021/10/12 13:31:56;;;;;;;3.03;2.70;;;;;;;21.09;63.19;100642.86;;;;-54
2021/10/12 13:34:54;;;;;;;3.38;2.57;;;;;;;21.08;63.17;100632.03;;;;-50
2021/10/12 13:37:54;;;;;;;4.53;2.75;;;;;;;21.08;63.13;100628.67;;;;-50
2021/10/12 13:40:54;;;;;;;4.16;2.78;;;;;;;21.07;63.15;100624.28;;;;-52
2021/10/12 13:43:54;;;;;;;3.77;2.77;;;;;;;21.05;63.13;100616.04;;;;-51
2021/10/12 13:46:54;;;;;;;4.50;2.63;;;;;;;21.04;63.21;100620.18;;;;-50
2021/10/12 13:49:54;;;;;;;3.49;2.50;;;;;;;21.04;63.26;100623.92;;;;-51
2021/10/12 13:52:54;;;;;;;6.60;2.80;;;;;;;21.03;63.30;100617.02;;;;-51
2021/10/12 13:55:54;;;;;;;3.00;2.70;;;;;;;21.02;63.35;100613.02;;;;-50
2021/10/12 13:58:54;;;;;;;3.00;2.70;;;;;;;21.01;63.30;100604.87;;;;-55
2021/10/12 14:01:54;;;;;;;3.79;2.74;;;;;;;21.01;63.37;100602.75;;;;-54
2021/10/12 14:04:54;;;;;;;3.30;2.56;;;;;;;21.00;63.34;100597.79;;;;-57
2021/10/12 14:07:54;;;;;;;4.11;2.76;;;;;;;20.99;63.36;100598.83;;;;-51
2021/10/12 14:10:57;;;;;;;3.47;2.66;;;;;;;20.98;63.36;100598.90;;;;-52
2021/10/12 14:13:54;;;;;;;3.49;2.50;;;;;;;20.97;63.39;100598.33;;;;-53
2021/10/12 14:16:54;;;;;;;4.09;2.54;;;;;;;20.95;63.31;100599.55;;;;-64
2021/10/12 14:19:54;;;;;;;2.99;2.53;;;;;;;20.94;63.24;100592.81;;;;-64
2021/10/12 14:22:54;;;;;;;2.91;2.49;;;;;;;20.92;63.25;100594.48;;;;-64
2021/10/12 14:25:54;;;;;;;3.73;2.75;;;;;;;20.90;63.28;100592.95;;;;-53
2021/10/12 14:28:54;;;;;;;5.13;2.58;;;;;;;20.88;63.26;100593.28;;;;-53
2021/10/12 14:31:54;;;;;;;3.31;2.59;;;;;;;20.86;63.21;100594.97;;;;-53
2021/10/12 14:34:54;;;;;;;4.59;2.41;;;;;;;20.85;63.29;100589.34;;;;-51
2021/10/12 14:37:54;;;;;;;6.33;2.67;;;;;;;20.85;63.34;100583.06;;;;-51
2021/10/12 14:40:54;;;;;;;3.55;2.61;;;;;;;20.86;63.31;100583.34;;;;-51
2021/10/12 14:43:54;;;;;;;5.23;2.49;;;;;;;20.89;63.24;100582.91;;;;-50
2021/10/12 14:46:54;;;;;;;6.27;2.67;;;;;;;20.90;63.27;100578.61;;;;-51
2021/10/12 14:49:54;;;;;;;3.77;2.51;;;;;;;20.93;63.41;100577.62;;;;-57
2021/10/12 14:52:54;;;;;;;3.53;2.53;;;;;;;20.97;63.31;100574.05;;;;-58
2021/10/12 14:55:54;;;;;;;5.81;2.27;;;;;;;21.01;63.58;100571.80;;;;-56
2021/10/12 14:58:54;;;;;;;3.81;2.55;;;;;;;21.04;63.59;100567.38;;;;-52
2021/10/12 15:01:54;;;;;;;3.69;2.59;;;;;;;21.08;63.66;100563.09;;;;-56
2021/10/12 15:04:54;;;;;;;3.95;2.48;;;;;;;21.09;63.56;100559.01;;;;-53
2021/10/12 15:07:54;;;;;;;3.24;2.43;;;;;;;21.13;63.74;100555.84;;;;-56
2021/10/12 15:10:54;;;;;;;2.61;2.41;;;;;;;21.16;63.64;100550.94;;;;-58
2021/10/12 15:13:54;;;;;;;4.61;2.58;;;;;;;21.18;63.65;100549.39;;;;-56
2021/10/12 15:16:54;;;;;;;5.15;2.51;;;;;;;21.21;63.61;100547.12;;;;-57
2021/10/12 15:19:55;;;;;;;6.00;2.60;;;;;;;21.24;63.54;100546.05;;;;-50
2021/10/12 15:22:54;;;;;;;3.13;2.51;;;;;;;21.27;63.52;100545.97;;;;-50
2021/10/12 15:25:54;;;;;;;3.66;2.45;;;;;;;21.30;63.60;100550.80;;;;-52
2021/10/12 15:28:54;;;;;;;4.07;2.44;;;;;;;21.30;63.47;100550.30;;;;-54
2021/10/12 15:31:54;;;;;;;3.47;2.33;;;;;;;21.32;63.51;100549.89;;;;-54
2021/10/12 15:34:56;;;;;;;5.37;2.46;;;;;;;21.33;63.48;100546.29;;;;-56
2021/10/12 15:37:54;;;;;;;2.69;2.42;;;;;;;21.34;63.47;100548.17;;;;-55
2021/10/12 15:40:54;;;;;;;4.90;2.44;;;;;;;21.36;63.52;100548.84;;;;-52
2021/10/12 15:43:54;;;;;;;3.47;2.41;;;;;;;21.37;63.58;100548.26;;;;-55
2021/10/12 15:46:54;;;;;;;3.39;2.39;;;;;;;21.37;63.44;100546.78;;;;-53
2021/10/12 15:49:54;;;;;;;3.47;2.51;;;;;;;21.39;63.41;100549.89;;;;-56
2021/10/12 15:52:54;;;;;;;2.73;2.40;;;;;;;21.41;63.50;100549.64;;;;-58
2021/10/12 15:55:54;;;;;;;3.00;2.54;;;;;;;21.41;63.62;100550.53;;;;-53
2021/10/12 15:58:55;;;;;;;3.47;2.38;;;;;;;21.43;63.50;100543.48;;;;-53
2021/10/12 16:01:54;;;;;;;4.23;2.29;;;;;;;21.44;63.42;100548.39;;;;-57
2021/10/12 16:04:54;;;;;;;2.71;2.27;;;;;;;21.44;63.26;100549.19;;;;-58
2021/10/12 16:07:56;;;;;;;3.71;2.49;;;;;;;21.44;63.26;100552.70;;;;-52
2021/10/12 16:10:54;;;;;;;4.81;2.34;;;;;;;21.46;63.30;100545.86;;;;-52
2021/10/12 16:13:54;;;;;;;5.41;2.56;;;;;;;21.46;63.45;100549.11;;;;-54
2021/10/12 16:17:09;;;;;;;6.86;2.40;;;;;;;21.48;63.43;100544.28;;;;-55
2021/10/12 16:20:24;;;;;;;3.03;2.27;;;;;;;21.50;63.57;100546.17;;;;-62
2021/10/12 16:22:54;;;;;;;3.48;2.17;;;;;;;21.51;63.43;100546.16;;;;-60
2021/10/12 16:25:54;;;;;;;2.84;2.16;;;;;;;21.52;63.47;100545.25;;;;-62
2021/10/12 16:28:54;;;;;;;3.43;2.44;;;;;;;21.55;63.59;100545.27;;;;-56
2021/10/12 16:31:55;;;;;;;3.06;2.29;;;;;;;21.54;63.69;100544.63;;;;-58
2021/10/12 16:34:54;;;;;;;2.95;2.30;;;;;;;21.57;63.72;100547.31;;;;-59
2021/10/12 16:37:54;;;;;;;4.01;2.42;;;;;;;21.56;63.67;100545.77;;;;-56
2021/10/12 16:40:54;;;;;;;3.37;2.21;;;;;;;21.58;63.62;100553.81;;;;-63